Latest Weather Observations for Low Rocky Point

IDT60801

Issued at 10:01 am EST Tuesday 26 May 2020 (issued every 10 minutes, with the page automatically refreshed every 10 minutes)

About weather observations | Map of weather stations | Latest weather observations for TAS | Other Formats
Station Details ID: 097080 Name: LOW ROCKY POINT Lat: -42.98 Lon: 145.50 Height: 34.0 m
Data from the previous 72 hours. | See also: Recent months at Low Rocky Point
Date/Time
EST
Temp
°C
App
Temp
°C
Dew
Point
°C
Rel
Hum
%
Delta-T
°C
Wind Press
QNH
hPa
Press
MSL
hPa
Rain since
9am
mm
Dir  Spd
km/h
Gust
km/h
Spd
kts
Gust
kts
26/10:00am 10.0 7.7 7.4 84 1.2 NNE 9 15 5 8 1026.5 1026.5 -
26/09:30am 8.5 4.9 6.8 89 0.8 NNE 15 17 8 9 1026.6 1026.6 -
26/09:00am 7.0 2.9 6.1 94 0.4 NNE 17 20 9 11 1026.5 1026.5 -
26/08:30am 6.0 1.2 5.6 97 0.2 NNE 20 22 11 12 1026.5 1026.5 -
26/08:00am 5.3 0.0 5.0 98 0.1 NNE 22 24 12 13 1026.5 1026.5 -
26/07:30am 5.2 -0.1 4.8 97 0.2 NNE 22 26 12 14 1026.4 1026.4 -
26/07:00am 5.6 0.7 5.2 97 0.2 NNE 20 24 11 13 1026.3 1026.3 -
26/06:30am 5.7 0.8 5.1 96 0.3 NNE 20 24 11 13 1026.4 1026.4 -
26/06:00am 5.7 0.8 5.1 96 0.3 NE 20 24 11 13 1026.3 1026.3 -
26/05:30am 6.2 1.4 5.5 95 0.3 NNE 20 24 11 13 1026.4 1026.4 -
26/05:00am 6.2 1.0 5.6 96 0.3 NNE 22 28 12 15 1026.6 1026.6 -
26/04:30am 6.0 0.4 5.3 95 0.3 NNE 24 28 13 15 1026.8 1026.8 -
26/04:00am 6.2 0.9 5.2 93 0.4 NNE 22 26 12 14 1027.0 1027.0 -
26/03:30am 7.1 2.0 6.0 93 0.5 NNE 22 24 12 13 1027.4 1027.4 -
26/03:00am 7.0 2.3 6.1 94 0.4 NNE 20 24 11 13 1027.7 1027.7 -
26/02:30am 6.7 2.0 6.0 95 0.3 NNE 20 24 11 13 1027.8 1027.8 -
26/02:00am 6.5 2.0 5.9 96 0.3 NNE 19 24 10 13 1027.6 1027.6 -
26/01:30am 6.4 1.9 6.0 97 0.2 NNE 19 22 10 12 1027.6 1027.6 -
26/01:00am 5.5 0.6 5.1 97 0.2 NNE 20 24 11 13 1027.5 1027.5 -
26/12:30am 5.4 0.1 4.8 96 0.3 NNE 22 26 12 14 1027.5 1027.5 -
26/12:00am 5.7 0.0 5.0 95 0.3 NNE 24 28 13 15 1027.3 1027.3 -
 
Date/Time
EST
Temp
°C
App
Temp
°C
Dew
Point
°C
Rel
Hum
%
Delta-T
°C
Wind Press
QNH
hPa
Press
MSL
hPa
Rain since
9am
mm
Dir  Spd
km/h
Gust
km/h
Spd
kts
Gust
kts
25/11:30pm 5.7 0.4 5.0 95 0.3 NNE 22 26 12 14 1027.4 1027.4 -
25/11:00pm 6.0 1.1 5.1 94 0.4 NNE 20 24 11 13 1027.5 1027.5 -
25/10:30pm 6.3 1.4 5.3 93 0.4 NNE 20 24 11 13 1027.8 1027.8 -
25/10:00pm 6.6 1.8 5.4 92 0.5 NNE 20 24 11 13 1027.6 1027.6 -
25/09:30pm 6.8 2.1 5.3 90 0.7 NNE 19 22 10 12 1027.6 1027.6 -
25/09:00pm 7.7 3.5 5.8 88 0.9 NNE 17 20 9 11 1027.8 1027.8 -
25/08:30pm 8.0 4.2 5.8 86 1.0 NNE 15 20 8 11 1028.0 1028.0 -
25/08:00pm 8.4 4.3 6.2 86 1.0 N 17 20 9 11 1027.7 1027.7 -
25/07:30pm 8.4 4.6 6.0 85 1.1 N 15 20 8 11 1027.6 1027.6 -
25/07:00pm 8.7 4.2 6.3 85 1.1 NNW 19 26 10 14 1027.7 1027.7 -
25/06:30pm 8.6 4.5 6.2 85 1.1 NNW 17 22 9 12 1027.4 1027.4 -
25/06:00pm 8.5 4.8 6.3 86 1.0 N 15 22 8 12 1027.2 1027.2 -
25/05:30pm 8.1 5.0 5.7 85 1.1 N 11 15 6 8 1027.3 1027.3 -
25/05:00pm 8.6 4.9 6.1 84 1.1 N 15 22 8 12 1027.0 1027.0 -
25/04:30pm 9.1 5.3 6.0 81 1.4 N 15 26 8 14 1026.6 1026.6 -
25/04:00pm 9.6 6.6 5.8 77 1.7 N 11 17 6 9 1026.7 1026.7 -
25/03:30pm 10.9 8.2 5.7 70 2.4 NNW 9 13 5 7 1027.1 1027.1 -
25/03:00pm 11.2 9.1 5.9 70 2.4 WSW 6 9 3 5 1027.1 1027.1 -
25/02:30pm 11.0 7.2 6.0 71 2.3 WSW 15 20 8 11 1027.5 1027.5 -
25/02:00pm 11.5 8.3 6.8 73 2.2 SW 13 19 7 10 1026.9 1026.9 -
25/01:30pm 11.8 7.9 6.9 72 2.3 WSW 17 28 9 15 1026.5 1026.5 -
25/01:00pm 12.4 10.4 6.9 69 2.6 NNE 7 15 4 8 1025.7 1025.7 -
25/12:30pm 11.5 8.1 6.0 69 2.6 NE 13 19 7 10 1025.3 1025.3 -
25/12:00pm 10.9 8.0 6.3 73 2.1 NE 11 15 6 8 1025.7 1025.7 -
25/11:30am 10.5 7.9 6.3 75 2.0 NE 9 13 5 7 1026.7 1026.7 -
25/11:00am 9.8 6.5 6.3 79 1.6 NE 13 17 7 9 1027.1 1027.1 -
25/10:30am 9.0 5.3 6.3 83 1.2 NE 15 20 8 11 1027.3 1027.3 -
25/10:00am 8.2 5.3 6.5 89 0.8 NE 11 15 6 8 1027.8 1027.8 -
25/09:30am 7.1 3.8 6.4 95 0.3 NE 13 15 7 8 1027.9 1027.9 -
25/09:00am 5.7 2.6 5.4 98 0.1 NE 11 13 6 7 1028.5 1028.5 -
25/08:30am 4.5 0.8 4.4 99 0.0 NE 13 17 7 9 1028.6 1028.6 -
25/08:00am 3.9 1.2 3.8 99 0.0 ENE 7 9 4 5 1029.0 1029.0 -
25/07:30am 3.3 -0.7 3.0 98 0.1 NE 13 15 7 8 1028.3 1028.3 -
25/07:00am 3.8 0.3 3.4 97 0.2 NE 11 13 6 7 1027.5 1027.5 -
25/06:30am 4.1 0.3 3.7 97 0.2 NE 13 15 7 8 1026.9 1026.9 -
25/06:00am 3.9 0.8 3.5 97 0.2 NE 9 13 5 7 1026.8 1026.8 -
25/05:30am 3.8 -0.1 3.2 96 0.2 NE 13 15 7 8 1026.2 1026.2 -
25/05:00am 4.0 0.1 3.3 95 0.3 ENE 13 13 7 7 1025.9 1025.9 -
25/04:30am 4.0 0.4 3.1 94 0.4 ENE 11 13 6 7 1025.8 1025.8 -
25/04:00am 4.4 0.9 3.4 93 0.4 ENE 11 13 6 7 1025.9 1025.9 -
25/03:30am 5.4 1.7 4.4 93 0.4 E 13 22 7 12 1026.0 1026.0 -
25/03:00am 5.5 1.8 4.2 91 0.5 E 13 19 7 10 1026.1 1026.1 -
25/02:30am 6.7 2.0 5.2 90 0.7 ESE 19 28 10 15 1026.2 1026.2 -
25/02:00am 7.0 1.8 5.5 90 0.7 ESE 22 30 12 16 1026.4 1026.4 -
25/01:30am 7.2 1.6 5.5 89 0.8 ESE 24 30 13 16 1026.6 1026.6 -
25/01:00am 7.2 2.0 5.5 89 0.8 ESE 22 28 12 15 1026.9 1026.9 -
25/12:30am 7.4 1.8 5.4 87 0.9 ESE 24 30 13 16 1026.8 1026.8 -
25/12:00am 8.0 2.1 5.6 85 1.1 ESE 26 33 14 18 1026.7 1026.7 -
 
Date/Time
EST
Temp
°C
App
Temp
°C
Dew
Point
°C
Rel
Hum
%
Delta-T
°C
Wind Press
QNH
hPa
Press
MSL
hPa
Rain since
9am
mm
Dir  Spd
km/h
Gust
km/h
Spd
kts
Gust
kts
24/11:30pm 8.5 2.3 6.3 86 1.0 SE 28 35 15 19 1026.9 1026.9 -
24/11:00pm 8.3 2.0 5.9 85 1.1 SE 28 35 15 19 1026.9 1026.9 -
24/10:30pm 8.4 2.2 6.0 85 1.1 SE 28 35 15 19 1026.7 1026.7 -
24/10:00pm 8.4 2.2 6.0 85 1.1 SE 28 37 15 20 1026.7 1026.7 -
24/09:30pm 8.5 2.7 6.1 85 1.1 SE 26 32 14 17 1026.6 1026.6 -
24/09:00pm 8.4 2.5 6.0 85 1.1 SE 26 33 14 18 1026.4 1026.4 -
24/08:30pm 8.5 3.0 6.1 85 1.1 SE 24 30 13 16 1026.2 1026.2 -
24/08:00pm 8.6 2.4 6.1 84 1.1 SE 28 35 15 19 1026.0 1026.0 -
24/07:30pm 8.6 2.8 6.1 84 1.1 ESE 26 33 14 18 1025.9 1025.9 -
24/07:00pm 8.9 3.8 6.2 83 1.2 SE 22 30 12 16 1025.7 1025.7 -
24/06:30pm 9.4 4.0 6.5 82 1.3 SE 24 32 13 17 1025.6 1025.6 -
24/06:00pm 9.5 4.2 6.6 82 1.3 SE 24 32 13 17 1025.3 1025.3 -
24/05:30pm 9.6 4.3 6.9 83 1.3 SE 24 32 13 17 1025.1 1025.1 -
24/05:00pm 9.5 4.2 6.8 83 1.3 SE 24 30 13 16 1024.8 1024.8 -
24/04:30pm 9.6 4.3 6.9 83 1.3 SE 24 32 13 17 1024.9 1024.9 -
24/04:00pm 9.8 4.6 7.1 83 1.3 SE 24 32 13 17 1024.9 1024.9 -
24/03:30pm 9.9 4.3 7.3 84 1.2 SE 26 35 14 19 1024.8 1024.8 -
24/03:00pm 10.0 3.7 7.6 85 1.1 SE 30 39 16 21 1024.8 1024.8 -
24/02:30pm 9.9 3.6 7.5 85 1.1 SE 30 39 16 21 1024.8 1024.8 -
24/02:00pm 10.2 4.5 8.3 88 0.9 SE 28 37 15 20 1024.8 1024.8 -
24/01:30pm 10.2 4.2 8.8 91 0.7 SE 30 39 16 21 1024.8 1024.8 -
24/01:00pm 9.8 3.9 9.0 95 0.4 SE 30 39 16 21 1024.8 1024.8 -
24/12:30pm 9.7 3.9 9.4 98 0.1 SE 30 39 16 21 1024.8 1024.8 -
24/12:00pm 9.7 3.6 9.6 99 0.0 SE 32 41 17 22 1024.9 1024.9 -
24/11:30am 9.7 4.3 9.6 99 0.0 SE 28 35 15 19 1025.1 1025.1 -
24/11:00am 9.8 4.5 9.7 99 0.0 SE 28 35 15 19 1025.0 1025.0 -
24/10:30am 9.9 5.3 9.8 99 0.1 ESE 24 30 13 16 1024.8 1024.8 -
24/10:00am 10.4 6.9 10.2 99 0.1 ESE 19 26 10 14 1024.5 1024.5 -
24/09:30am 9.4 5.5 9.3 99 0.0 ESE 20 28 11 15 1024.3 1024.3 -
24/09:00am 9.5 5.8 9.4 99 0.0 ESE 19 26 10 14 1024.2 1024.2 -
24/08:30am 9.1 5.1 9.0 99 0.0 ESE 20 26 11 14 1023.9 1023.9 -
24/08:00am 8.7 4.6 8.6 99 0.0 ESE 20 26 11 14 1023.6 1023.6 -
24/07:30am 8.7 5.2 8.6 99 0.0 ESE 17 24 9 13 1023.4 1023.4 -
24/07:00am 8.8 5.3 8.7 99 0.0 ESE 17 20 9 11 1023.0 1023.0 -
24/06:30am 8.8 6.0 8.7 99 0.0 ESE 13 17 7 9 1022.5 1022.5 -
24/06:00am 8.7 5.9 8.6 99 0.0 ESE 13 19 7 10 1022.2 1022.2 -
24/05:30am 8.9 6.5 8.8 99 0.0 SE 11 17 6 9 1022.2 1022.2 -
24/05:00am 8.8 6.0 8.4 97 0.2 E 13 17 7 9 1021.9 1021.9 -
24/04:30am 8.9 4.7 8.1 95 0.4 SSE 20 28 11 15 1021.7 1021.7 -
24/04:00am 9.0 4.7 7.9 93 0.5 SSE 20 28 11 15 1021.7 1021.7 -
24/03:30am 9.2 5.0 7.5 89 0.8 SSE 19 24 10 13 1021.7 1021.7 -
24/03:00am 9.3 5.1 7.4 88 0.9 SSE 19 24 10 13 1021.9 1021.9 -
24/02:30am 9.0 4.6 7.3 89 0.8 SSE 20 26 11 14 1022.0 1022.0 -
24/02:00am 8.9 4.5 7.5 91 0.7 S 20 28 11 15 1021.9 1021.9 -
24/01:30am 8.7 5.6 7.3 91 0.7 S 13 19 7 10 1021.9 1021.9 -
24/01:00am 9.5 4.6 6.9 84 1.2 S 22 30 12 16 1021.6 1021.6 -
24/12:30am 9.7 5.1 6.4 80 1.5 S 20 32 11 17 1021.6 1021.6 -
24/12:00am 10.0 4.9 6.2 77 1.8 SSE 22 32 12 17 1021.6 1021.6 -
 
Date/Time
EST
Temp
°C
App
Temp
°C
Dew
Point
°C
Rel
Hum
%
Delta-T
°C
Wind Press
QNH
hPa
Press
MSL
hPa
Rain since
9am
mm
Dir  Spd
km/h
Gust
km/h
Spd
kts
Gust
kts
23/11:30pm 10.2 4.7 6.0 75 1.9 S 24 32 13 17 1021.4 1021.4 -
23/11:00pm 10.2 5.3 5.2 71 2.3 S 20 32 11 17 1021.2 1021.2 -
23/10:30pm 9.9 4.5 4.3 68 2.5 SSE 22 32 12 17 1021.3 1021.3 -
23/10:00pm 10.1 4.4 5.1 71 2.3 SSE 24 32 13 17 1021.0 1021.0 -
23/09:30pm 9.9 5.0 4.9 71 2.3 SSE 20 30 11 16 1020.7 1020.7 -
23/09:00pm 9.9 4.3 5.3 73 2.1 SSE 24 32 13 17 1020.6 1020.6 -
23/08:30pm 10.1 5.6 7.0 81 1.5 SSE 20 26 11 14 1020.4 1020.4 -
23/08:00pm 10.1 4.0 6.8 80 1.5 S 28 35 15 19 1020.2 1020.2 -
23/07:30pm 10.3 3.6 5.7 73 2.1 S 30 39 16 21 1020.0 1020.0 -
23/07:00pm 10.6 5.2 6.2 74 2.0 S 24 33 13 18 1019.8 1019.8 -
23/06:30pm 10.6 4.2 6.9 78 1.8 S 30 39 16 21 1019.5 1019.5 -
23/06:00pm 10.5 4.6 7.6 82 1.4 S 28 35 15 19 1019.2 1019.2 -
23/05:30pm 10.3 4.6 8.2 87 1.0 S 28 37 15 20 1018.9 1018.9 -
23/05:00pm 9.8 4.5 8.6 92 0.6 S 26 35 14 19 1018.6 1018.6 -
23/04:30pm 9.8 5.3 8.7 93 0.5 S 22 32 12 17 1018.6 1018.6 -
23/04:00pm 10.6 6.1 8.7 88 0.9 S 22 28 12 15 1018.4 1018.4 -
23/03:30pm 11.0 6.3 9.3 89 0.9 S 24 32 13 17 1018.2 1018.2 -
23/03:00pm 11.0 6.3 9.3 89 0.8 S 24 32 13 17 1018.2 1018.2 -
23/02:30pm 10.9 6.2 9.3 90 0.8 S 24 33 13 18 1017.9 1017.9 -
23/02:00pm 10.7 5.7 9.6 93 0.6 S 26 35 14 19 1018.0 1018.0 -
23/01:30pm 10.7 6.3 10.5 99 0.1 SSW 24 32 13 17 1018.1 1018.1 -
23/01:00pm 10.8 6.5 10.6 99 0.1 SSW 24 35 13 19 1018.2 1018.2 -
23/12:30pm 10.9 6.6 10.7 99 0.1 SSW 24 35 13 19 1018.3 1018.3 -
23/12:00pm 11.2 7.4 11.0 99 0.1 SW 22 33 12 18 1018.6 1018.6 -
23/11:30am 11.3 8.8 11.1 99 0.1 SSW 15 22 8 12 1018.8 1018.8 -
23/11:00am 11.3 8.1 11.1 99 0.1 SW 19 24 10 13 1018.9 1018.9 -
23/10:30am 11.4 9.3 11.2 99 0.1 SW 13 19 7 10 1018.7 1018.7 -

Other formats

Comma delimited format used in spreadsheet applications
http://www.bom.gov.au/fwo/IDT60801/IDT60801.95961.axf

JavaScript Object Notation format (JSON) in row-major order
http://www.bom.gov.au/fwo/IDT60801/IDT60801.95961.json

Data quality

Most of these data are generated automatically and are frequently updated. Quality checks on data are not normally performed. It is possible for incorrect values to appear. Refer to information at About Latest Weather Observations and please check the disclaimer before using these data.